Loda, Illinois
Current Conditions -  °F | °C
As of 9:50 PM on Saturday 25 Oct 2014 (Local Time) from KTIP Reporting Station
Clear Clear  
Wind Chill: 13°   Ceiling: Unl
Heat Index: 13°   Visibility: 10mi
Dew Point:   Wind: 7mph
Humidity: 62%   Direction: 300°WNW
Pressure: 30"   Gusts: NA
Location:  40.52°N, 88.07°W
Report Text: KTIP 260250Z AUTO 30006KT 10SM CLR 13/06 A3000 RMK AO2 T01250055
Loading
Personal Weather Stations






























Interactive Weather Map
Tropical Storm Tracking
New forecast layout! Learn more

10-Day Weather Forecast

Advertisements
Track Severe Weather on mobile